AirNav   Pilot Hours Calculator
 
 1101 users online  

3AR4 Four Mile Creek Ranch Airport
Cabot, Arkansas, USA

GOING TO CABOT?


FAA INFORMATION EFFECTIVE 15 JULY 2021

Location

FAA Identifier: 3AR4
Lat/Long: 35-00-20.3600N 092-04-38.8000W
35-00.339333N 092-04.646667W
35.0056556,-92.0774444
(estimated)
Elevation: 500 ft. / 152 m (estimated)
Variation: 02E (2000)
From city: 4 miles W of CABOT, AR
Time zone: UTC -5 (UTC -6 during Standard Time)
Zip code: 72023

Airport Operations

Airport use: Private use. Permission required prior to landing
Activation date: 11/2000
Control tower: no
ARTCC: MEMPHIS CENTER
FSS: JONESBORO FLIGHT SERVICE STATION
Attendance: UNATNDD
Wind indicator: yes
Segmented circle: no
Lights: FOR LIRL RY 09/27 CALL 501-988-2844.

Airport Communications

WX AWOS-3PT at ORK (14 nm SW): 123.775 (501-906-6529)
WX ASOS at LIT (18 nm SW): PHONE 501-376-0247

Nearby radio navigation aids

VOR radial/distance  VOR name  Freq  Var
LITr009/20.3LITTLE ROCK VORTAC113.9005E

Airport Services

Fuel available: 100LL

Runway Information

Runway 9/27

Dimensions: 3400 x 60 ft. / 1036 x 18 m
Surface: turf
Runway edge lights: low intensity
RUNWAY 9  RUNWAY 27
Traffic pattern: leftleft
Obstructions: 50 ft. trees50 ft. trees

Airport Ownership and Management from official FAA records

Ownership: Privately-owned
Owner: JOHN O. LEWIS
15401 A HWY 5
CABOT, AR 72023
Phone 501-988-2844
Manager: JOHN O. LEWIS
15401 A HWY 5
CABOT, AR 72023
Phone 501-982-9536

Airport Operational Statistics

Aircraft based on the field: 1
Single engine airplanes: 1
    

Additional Remarks

FOR CD CTC LITTLE ROCK APCH 501-379-2908 OR LITTLE ROCK ATCT 501-379-2911.

Instrument Procedures

There are no published instrument procedures at 3AR4.

Some nearby airports with instrument procedures:

KLRF - Little Rock Air Force Base (6 nm SW)
KORK - North Little Rock Municipal Airport (14 nm SW)
KLIT - Bill and Hillary Clinton National Airport/Adams Field (18 nm SW)
KSRC - Searcy Municipal Airport (21 nm NE)
4M3 - Carlisle Municipal Airport (22 nm SE)
 
Loc | Ops | Rwys | IFR | FBO | Links
Com | Nav | Svcs | Stats | Notes
Area around 3AR4 (Four Mile Creek Ranch Airport)
 
Road maps at: MapQuest Bing Google
 
Aerial photo
No photo
 
Sectional chart

 
Airport distance calculator
Flying to Four Mile Creek Ranch Airport? Find the distance to fly.

From to 3AR4

Sunrise and sunset
Times for 29-Jul-2021
 Local
(UTC-5)
 Zulu
(UTC)
Morning civil twilight05:4810:48
Sunrise06:1611:16
Sunset20:1301:13
Evening civil twilight20:4101:41

Current date and time
Zulu (UTC)  29-Jul-2021 13:03:31
Local (UTC-5)  29-Jul-2021 08:03:31
 
METAR
KLRF 
6nm SW 
291256Z AUTO 00000KT 9SM CLR 26/24 A3007 RMK AO2 SLP182 T02560240
KORK 
14nm SW 
291255Z AUTO 00000KT 10SM CLR 26/22 A3008 RMK AO2
KLIT 
18nm SW 
291253Z 00000KT 7SM CLR 26/23 A3008 RMK AO2 SLP185 T02610233
TAF
KLRF 
6nm SW 
290700Z 2907/3013 VRB06KT 9999 FEW060 QNH2998INS BECMG 2921/2922 09006KT 9999 FEW060 QNH2995INS BECMG 3005/3006 VRB06KT 9999 FEW060 QNH2999INS TX37/2920Z TN23/2910Z
KLIT 
18nm SW 
291125Z 2912/3012 VRB04KT P6SM SKC FM291600 VRB06KT P6SM FEW040 FM300000 VRB03KT P6SM SKC
NOTAMs
Click for the latest NOTAMs
NOTAMs are issued by the DoD/FAA and will open in a separate window not controlled by AirNav.

 

 
 

Would you like to see your business listed on this page?

 If your business provides an interesting product or service to pilots, flight crews, aircraft, or users of the Four Mile Creek Ranch Airport, you should consider listing it here.  To start the listing process, click on the button below
 
Add a business
 

Other Pages about Four Mile Creek Ranch Airport

Update a link
 
Copyright © AirNav, LLC. All rights reserved. Privacy Policy  Contact